Terminal Aerodrome Forecast
Issued by NWS Sioux Falls, SD

Home | Current Version | Previous Version | Graphics & Text | Print | Product List | Glossary On
Versions: 1 2 3 4 5 6 7 8 9 10 11 12 13 14 15
000
FTUS43 KFSD 011120
TAFHON
TAF
KHON 011120Z 0112/0212 26006KT P6SM BKN150
     FM011700 29013G19KT P6SM SCT080
     FM020000 31007KT P6SM SKC
     FM020400 VRB04KT P6SM SKC=

USA.gov is the U.S. government's official web portal to all federal, state and local government web resources and services.